createdAt,value
2023-04-15T00:00:32.494Z,96849.38
2023-04-15T00:03:35.918Z,96846.94
2023-04-15T00:06:40.054Z,96843.28
2023-04-15T00:09:43.255Z,96848.31
2023-04-15T00:12:46.027Z,96846.06
2023-04-15T00:15:48.919Z,96837.63
2023-04-15T00:18:52.122Z,96842.41
2023-04-15T00:21:54.704Z,96842.25
2023-04-15T00:24:57.569Z,96850.19
2023-04-15T00:28:00.200Z,96854.59
2023-04-15T00:31:03.076Z,96844.94
2023-04-15T00:34:05.886Z,96846.00
2023-04-15T00:37:10.404Z,96841.25
2023-04-15T00:40:14.131Z,96836.72
2023-04-15T00:43:19.826Z,96836.03
2023-04-15T00:46:23.095Z,96845.22
2023-04-15T00:49:26.198Z,96840.97
2023-04-15T00:52:28.782Z,96846.84
2023-04-15T00:55:31.772Z,96843.84
2023-04-15T00:58:34.503Z,96842.75
2023-04-15T01:01:37.692Z,96849.16
2023-04-15T01:04:40.711Z,96840.38
2023-04-15T01:07:43.813Z,96845.31
2023-04-15T01:10:46.730Z,96846.53
2023-04-15T01:13:49.414Z,96848.19
2023-04-15T01:16:53.340Z,96839.13
2023-04-15T01:19:59.130Z,96839.81
2023-04-15T01:23:02.319Z,96838.28
2023-04-15T01:26:06.502Z,96842.63
2023-04-15T01:29:09.180Z,96850.06
2023-04-15T01:32:12.328Z,96850.31
2023-04-15T01:35:15.152Z,96843.47
2023-04-15T01:38:18.448Z,96841.75
2023-04-15T01:41:28.227Z,96847.72
2023-04-15T01:44:31.025Z,96843.19
2023-04-15T01:47:33.883Z,96849.16
2023-04-15T01:50:38.441Z,96832.69
2023-04-15T01:53:41.325Z,96832.97
2023-04-15T01:56:44.710Z,96823.44
2023-04-15T01:59:47.683Z,96825.38
2023-04-15T02:02:51.605Z,96823.94
2023-04-15T02:05:54.428Z,96834.41
2023-04-15T02:08:57.170Z,96830.16
2023-04-15T02:12:01.049Z,96826.31
2023-04-15T02:15:05.620Z,96830.94
2023-04-15T02:18:08.431Z,96828.72
2023-04-15T02:21:12.000Z,96826.09
2023-04-15T02:24:14.584Z,96829.47
2023-04-15T02:27:18.582Z,96839.81
2023-04-15T02:30:21.664Z,96843.22
2023-04-15T02:33:25.097Z,96841.50
2023-04-15T02:36:28.064Z,96842.72
2023-04-15T02:39:30.637Z,96843.09
2023-04-15T02:42:33.324Z,96845.13
2023-04-15T02:45:37.920Z,96855.47
2023-04-15T02:48:42.035Z,96853.97
2023-04-15T02:51:49.696Z,96838.28
2023-04-15T02:54:52.697Z,96840.59
2023-04-15T02:57:56.622Z,96837.97
2023-04-15T03:00:59.243Z,96836.44
2023-04-15T03:04:02.349Z,96833.25
2023-04-15T03:07:05.205Z,96833.25
2023-04-15T03:10:09.105Z,96832.19
2023-04-15T03:13:11.955Z,96831.19
2023-04-15T03:16:16.686Z,96837.25
2023-04-15T03:19:19.483Z,96829.13
2023-04-15T03:22:22.290Z,96831.72
2023-04-15T03:25:25.336Z,96819.41
2023-04-15T03:28:29.884Z,96821.50
2023-04-15T03:31:33.953Z,96817.81
2023-04-15T03:34:37.727Z,96825.50
2023-04-15T03:37:40.492Z,96824.25
2023-04-15T03:40:43.716Z,96820.94
2023-04-15T03:43:46.409Z,96831.81
2023-04-15T03:46:49.311Z,96831.69
2023-04-15T03:49:52.104Z,96825.59
2023-04-15T03:52:54.690Z,96826.94
2023-04-15T03:55:57.643Z,96825.31
2023-04-15T03:59:00.495Z,96828.06
2023-04-15T04:02:03.410Z,96827.19
2023-04-15T04:05:06.314Z,96835.19
2023-04-15T04:08:08.969Z,96836.63
2023-04-15T04:11:11.698Z,96837.81
2023-04-15T04:14:14.309Z,96843.03
2023-04-15T04:17:16.986Z,96847.66
2023-04-15T04:20:19.849Z,96845.66
2023-04-15T04:23:22.469Z,96857.41
2023-04-15T04:26:25.138Z,96862.75
2023-04-15T04:29:27.828Z,96857.25
2023-04-15T04:32:30.609Z,96861.88
2023-04-15T04:35:35.285Z,96867.53
2023-04-15T04:38:37.925Z,96864.03
2023-04-15T04:41:40.797Z,96867.69
2023-04-15T04:44:43.524Z,96871.94
2023-04-15T04:47:47.201Z,96863.00
2023-04-15T04:50:50.024Z,96863.72
2023-04-15T04:53:52.810Z,96864.06
2023-04-15T04:56:55.953Z,96872.53
2023-04-15T04:59:58.570Z,96877.72
2023-04-15T05:03:01.551Z,96880.38
2023-04-15T05:06:06.839Z,96882.22
2023-04-15T05:09:09.620Z,96884.69
2023-04-15T05:12:15.592Z,96891.09
2023-04-15T05:15:18.169Z,96895.16
2023-04-15T05:18:21.299Z,96886.19
2023-04-15T05:21:24.079Z,96888.09
2023-04-15T05:24:26.909Z,96896.25
2023-04-15T05:27:29.702Z,96889.22
2023-04-15T05:30:32.446Z,96896.06
2023-04-15T05:33:35.230Z,96896.44
2023-04-15T05:36:38.338Z,96897.59
2023-04-15T05:39:40.986Z,96895.59
2023-04-15T05:42:44.170Z,96901.19
2023-04-15T05:45:47.007Z,96912.28
2023-04-15T05:48:49.984Z,96906.00
2023-04-15T05:51:52.899Z,96908.94
2023-04-15T05:54:55.640Z,96912.94
2023-04-15T05:57:58.349Z,96900.78
2023-04-15T06:01:01.480Z,96912.72
2023-04-15T06:04:04.395Z,96911.44
2023-04-15T06:07:07.565Z,96914.50
2023-04-15T06:10:11.372Z,96911.78
2023-04-15T06:13:14.185Z,96912.75
2023-04-15T06:16:16.949Z,96916.06
2023-04-15T06:19:19.932Z,96916.53
2023-04-15T06:22:23.548Z,96916.75
2023-04-15T06:25:26.545Z,96924.28
2023-04-15T06:28:29.367Z,96920.16
2023-04-15T06:31:32.194Z,96925.56
2023-04-15T06:34:35.096Z,96913.44
2023-04-15T06:37:37.789Z,96913.25
2023-04-15T06:40:40.687Z,96915.75
2023-04-15T06:43:43.680Z,96920.63
2023-04-15T06:46:46.568Z,96921.97
2023-04-15T06:49:49.345Z,96923.28
2023-04-15T06:52:52.405Z,96930.00
2023-04-15T06:55:55.330Z,96926.78
2023-04-15T06:58:58.316Z,96938.50
2023-04-15T07:02:01.807Z,96943.44
2023-04-15T07:05:07.256Z,96941.50
2023-04-15T07:08:10.245Z,96937.28
2023-04-15T07:11:13.386Z,96938.31
2023-04-15T07:14:16.304Z,96945.19
2023-04-15T07:17:19.336Z,96944.94
2023-04-15T07:20:22.162Z,96951.31
2023-04-15T07:23:25.142Z,96954.25
2023-04-15T07:26:28.150Z,96955.88
2023-04-15T07:29:31.013Z,96962.44
2023-04-15T07:32:33.926Z,96966.50
2023-04-15T07:35:36.628Z,96960.50
2023-04-15T07:38:40.715Z,96962.78
2023-04-15T07:41:43.858Z,96966.41
2023-04-15T07:44:46.917Z,96974.16
2023-04-15T07:47:52.807Z,96968.56
2023-04-15T07:50:55.653Z,96966.44
2023-04-15T07:53:58.540Z,96965.94
2023-04-15T07:57:01.874Z,96972.41
2023-04-15T08:00:06.052Z,96967.91
2023-04-15T08:03:15.912Z,96974.38
2023-04-15T08:06:19.061Z,96972.63
2023-04-15T08:09:21.945Z,96976.69
2023-04-15T08:12:24.745Z,96972.81
2023-04-15T08:15:28.785Z,96979.25
2023-04-15T08:18:31.862Z,96973.91
2023-04-15T08:21:35.006Z,96984.91
2023-04-15T08:24:37.988Z,96983.16
2023-04-15T08:27:42.398Z,96985.03
2023-04-15T08:30:45.211Z,96989.75
2023-04-15T08:33:48.281Z,96994.88
2023-04-15T08:36:51.547Z,96988.53
2023-04-15T08:39:54.311Z,96990.53
2023-04-15T08:42:58.204Z,96989.53
2023-04-15T08:46:02.102Z,96990.84
2023-04-15T08:49:05.729Z,96999.22
2023-04-15T08:52:09.791Z,96986.91
2023-04-15T08:55:14.252Z,96993.63
2023-04-15T08:58:17.369Z,97000.81
2023-04-15T09:01:20.812Z,97000.34
2023-04-15T09:04:23.739Z,96998.72
2023-04-15T09:07:27.565Z,97001.16
2023-04-15T09:10:31.381Z,97007.53
2023-04-15T09:13:34.241Z,97003.94
2023-04-15T09:16:57.149Z,96996.09
2023-04-15T09:20:17.105Z,97009.81
2023-04-15T09:23:20.164Z,97011.78
2023-04-15T09:26:40.803Z,97014.44
2023-04-15T09:29:43.458Z,97016.03
2023-04-15T09:32:54.124Z,97014.41
2023-04-15T09:36:06.821Z,97027.16
2023-04-15T09:39:09.704Z,97022.72
2023-04-15T09:42:12.496Z,97027.03
2023-04-15T09:45:15.268Z,97023.34
2023-04-15T09:48:23.131Z,97025.19
2023-04-15T09:51:35.723Z,97018.16
2023-04-15T09:54:39.259Z,97024.78
2023-04-15T09:57:42.213Z,97022.53
2023-04-15T10:00:45.280Z,97031.19
2023-04-15T10:03:48.493Z,97036.03
2023-04-15T10:06:51.753Z,97035.75
2023-04-15T10:09:55.099Z,97036.34
2023-04-15T10:12:58.046Z,97042.88
2023-04-15T10:19:20.841Z,97049.28
2023-04-15T10:22:24.155Z,97053.03
2023-04-15T10:25:27.608Z,97043.41
2023-04-15T10:28:30.401Z,97048.59
2023-04-15T10:31:33.539Z,97048.88
2023-04-15T10:34:36.458Z,97043.63
2023-04-15T10:37:39.726Z,97044.78
2023-04-15T10:40:42.757Z,97042.44
2023-04-15T10:44:03.655Z,97040.25
2023-04-15T10:47:15.032Z,97037.19
2023-04-15T10:50:19.613Z,97037.78
2023-04-15T10:53:32.488Z,97031.16
2023-04-15T10:56:35.347Z,97032.75
2023-04-15T10:59:59.747Z,97033.56
2023-04-15T11:03:08.468Z,97037.22
2023-04-15T11:06:11.651Z,97029.50
2023-04-15T11:09:34.546Z,97035.03
2023-04-15T11:12:38.069Z,97028.69
2023-04-15T11:15:48.358Z,97021.00
2023-04-15T11:18:57.318Z,97025.81
2023-04-15T11:22:10.284Z,97018.56
2023-04-15T11:25:26.298Z,97030.88
2023-04-15T11:28:30.764Z,97025.56
2023-04-15T11:31:33.860Z,97026.13
2023-04-15T11:34:36.973Z,97026.97
2023-04-15T11:37:39.889Z,97019.91
2023-04-15T11:40:46.216Z,97010.03
2023-04-15T11:43:50.982Z,97019.94
2023-04-15T11:46:55.818Z,97020.06
2023-04-15T11:49:58.541Z,97025.16
2023-04-15T11:53:04.787Z,97021.91
2023-04-15T11:56:11.965Z,97015.00
2023-04-15T11:59:14.715Z,97012.09
2023-04-15T12:02:17.831Z,97030.25
2023-04-15T12:05:21.056Z,97023.22
2023-04-15T12:08:24.026Z,97024.38
2023-04-15T12:11:27.040Z,97030.97
2023-04-15T12:14:33.783Z,97039.34
2023-04-15T12:17:52.023Z,97039.84
2023-04-15T12:20:55.048Z,97032.66
2023-04-15T12:23:58.839Z,97031.19
2023-04-15T12:27:05.988Z,97036.50
2023-04-15T12:30:09.636Z,97041.00
2023-04-15T12:33:12.511Z,97033.81
2023-04-15T12:36:15.398Z,97037.50
2023-04-15T12:39:18.331Z,97041.03
2023-04-15T12:42:23.194Z,97048.28
2023-04-15T12:45:27.880Z,97053.72
2023-04-15T12:48:32.193Z,97052.00
2023-04-15T12:51:37.970Z,97044.13
2023-04-15T12:54:41.046Z,97043.44
2023-04-15T12:57:45.982Z,97051.56
2023-04-15T13:00:50.122Z,97046.88
2023-04-15T13:03:53.236Z,97058.97
2023-04-15T13:06:56.727Z,97061.03
2023-04-15T13:09:59.706Z,97056.94
2023-04-15T13:13:03.649Z,97064.97
2023-04-15T13:16:06.979Z,97060.91
2023-04-15T13:19:09.989Z,97075.22
2023-04-15T13:22:13.058Z,97074.13
2023-04-15T13:25:16.057Z,97099.34
2023-04-15T13:28:18.867Z,97085.06
2023-04-15T13:31:21.950Z,97096.97
2023-04-15T13:34:24.813Z,97118.59
2023-04-15T13:37:28.748Z,97131.53
2023-04-15T13:40:32.058Z,97145.13
2023-04-15T13:43:34.907Z,97146.66
2023-04-15T13:46:39.930Z,97156.78
2023-04-15T13:49:42.768Z,97154.94
2023-04-15T13:52:45.737Z,97146.25
2023-04-15T13:55:48.860Z,97140.00
2023-04-15T13:58:53.303Z,97146.50
2023-04-15T14:01:56.593Z,97142.72
2023-04-15T14:04:59.448Z,97139.91
2023-04-15T14:08:02.543Z,97139.34
2023-04-15T14:11:05.592Z,97139.25
2023-04-15T14:14:08.507Z,97143.53
2023-04-15T14:17:11.536Z,97141.00
2023-04-15T14:20:16.824Z,97146.00
2023-04-15T14:23:20.359Z,97152.81
2023-04-15T14:26:23.544Z,97154.16
2023-04-15T14:29:26.748Z,97154.22
2023-04-15T14:32:29.814Z,97155.50
2023-04-15T14:35:33.296Z,97145.31
2023-04-15T14:38:40.755Z,97148.03
2023-04-15T14:41:43.875Z,97145.88
2023-04-15T14:44:46.926Z,97160.25
2023-04-15T14:47:49.768Z,97157.09
2023-04-15T14:50:53.186Z,97168.16
2023-04-15T14:53:56.050Z,97168.56
2023-04-15T14:56:58.898Z,97167.06
2023-04-15T15:00:02.126Z,97175.56
2023-04-15T15:03:06.997Z,97184.47
2023-04-15T15:06:09.788Z,97182.47
2023-04-15T15:09:12.533Z,97186.03
2023-04-15T15:12:15.447Z,97187.28
2023-04-15T15:15:28.460Z,97189.34
2023-04-15T15:18:31.839Z,97190.63
2023-04-15T15:21:35.195Z,97199.88
2023-04-15T15:24:37.855Z,97204.19
2023-04-15T15:27:41.000Z,97206.19
2023-04-15T15:30:43.751Z,97207.94
2023-04-15T15:33:46.708Z,97203.66
2023-04-15T15:36:49.517Z,97212.59
2023-04-15T15:39:53.273Z,97219.84
2023-04-15T15:42:56.065Z,97214.88
2023-04-15T15:45:59.079Z,97215.19
2023-04-15T15:49:04.103Z,97220.59
2023-04-15T15:52:07.402Z,97228.38
2023-04-15T15:55:10.770Z,97230.81
2023-04-15T15:58:13.579Z,97231.16
2023-04-15T16:01:16.815Z,97230.88
2023-04-15T16:04:19.840Z,97232.56
2023-04-15T16:07:22.858Z,97229.13
2023-04-15T16:10:28.041Z,97241.06
2023-04-15T16:13:31.110Z,97244.31
2023-04-15T16:16:34.106Z,97241.06
2023-04-15T16:19:36.962Z,97241.53
2023-04-15T16:22:39.843Z,97240.25
2023-04-15T16:25:44.280Z,97242.59
2023-04-15T16:28:47.253Z,97252.66
2023-04-15T16:31:50.212Z,97257.56
2023-04-15T16:34:53.417Z,97259.84
2023-04-15T16:37:56.215Z,97262.16
2023-04-15T16:41:00.718Z,97272.88
2023-04-15T16:44:03.707Z,97276.03
2023-04-15T16:47:06.795Z,97279.00
2023-04-15T16:50:14.364Z,97292.22
2023-04-15T16:53:19.574Z,97296.19
2023-04-15T16:56:22.476Z,97291.44
2023-04-15T16:59:26.204Z,97302.00
2023-04-15T17:02:30.105Z,97297.50
2023-04-15T17:05:33.140Z,97311.94
2023-04-15T17:08:35.884Z,97318.78
2023-04-15T17:11:40.875Z,97311.78
2023-04-15T17:14:43.568Z,97322.84
2023-04-15T17:17:46.346Z,97325.25
2023-04-15T17:20:49.409Z,97319.69
2023-04-15T17:23:52.470Z,97330.38
2023-04-15T17:26:55.447Z,97330.06
2023-04-15T17:29:58.236Z,97333.09
2023-04-15T17:33:01.834Z,97341.03
2023-04-15T17:36:05.253Z,97347.78
2023-04-15T17:39:08.322Z,97345.75
2023-04-15T17:42:11.891Z,97345.19
2023-04-15T17:45:15.610Z,97345.97
2023-04-15T17:48:18.474Z,97349.56
2023-04-15T17:51:22.135Z,97352.94
2023-04-15T17:54:25.129Z,97362.19
2023-04-15T17:57:28.025Z,97373.25
2023-04-15T18:00:30.926Z,97371.09
2023-04-15T18:03:33.796Z,97381.25
2023-04-15T18:06:36.828Z,97372.31
2023-04-15T18:09:39.960Z,97388.47
2023-04-15T18:12:42.919Z,97397.41
2023-04-15T18:15:47.395Z,97403.28
2023-04-15T18:18:50.774Z,97405.16
2023-04-15T18:21:53.817Z,97410.38
2023-04-15T18:24:59.411Z,97414.13
2023-04-15T18:28:02.617Z,97411.69
2023-04-15T18:31:05.884Z,97415.59
2023-04-15T18:34:09.208Z,97421.56
2023-04-15T18:37:12.129Z,97436.97
2023-04-15T18:40:16.487Z,97424.56
2023-04-15T18:43:19.507Z,97434.56
2023-04-15T18:46:22.621Z,97439.59
2023-04-15T18:49:27.555Z,97440.28
2023-04-15T18:52:30.975Z,97443.84
2023-04-15T18:55:33.734Z,97449.25
2023-04-15T18:59:09.412Z,97455.00
2023-04-15T19:02:07.039Z,97457.50
2023-04-15T19:05:10.204Z,97455.16
2023-04-15T19:08:13.117Z,97464.97
2023-04-15T19:11:16.258Z,97467.28
2023-04-15T19:14:19.318Z,97460.56
2023-04-15T19:17:22.697Z,97477.03
2023-04-15T19:20:25.740Z,97472.09
2023-04-15T19:23:28.609Z,97480.69
2023-04-15T19:26:31.831Z,97478.78
2023-04-15T19:29:34.651Z,97479.91
2023-04-15T19:32:37.820Z,97494.06
2023-04-15T19:35:41.366Z,97484.88
2023-04-15T19:38:44.658Z,97495.88
2023-04-15T19:41:47.784Z,97494.06
2023-04-15T19:44:51.101Z,97497.78
2023-04-15T19:47:54.504Z,97500.28
2023-04-15T19:50:59.223Z,97510.56
2023-04-15T19:54:02.465Z,97507.09
2023-04-15T19:57:07.724Z,97515.06
2023-04-15T20:00:11.377Z,97522.09
2023-04-15T20:03:14.610Z,97513.72
2023-04-15T20:06:17.621Z,97518.00
2023-04-15T20:09:20.411Z,97519.47
2023-04-15T20:12:51.038Z,97529.91
2023-04-15T20:15:45.930Z,97528.81
2023-04-15T20:18:49.080Z,97522.22
2023-04-15T20:21:52.692Z,97535.81
2023-04-15T20:24:56.249Z,97528.41
2023-04-15T20:28:00.961Z,97528.00
2023-04-15T20:31:04.495Z,97521.13
2023-04-15T20:34:09.960Z,97526.22
2023-04-15T20:37:14.182Z,97534.03
2023-04-15T20:40:16.940Z,97537.66
2023-04-15T20:43:21.948Z,97538.47
2023-04-15T20:46:27.363Z,97537.38
2023-04-15T20:49:36.568Z,97549.06
2023-04-15T20:52:40.096Z,97550.16
2023-04-15T20:55:46.332Z,97551.09
2023-04-15T20:58:50.546Z,97553.59
2023-04-15T21:01:53.950Z,97559.34
2023-04-15T21:04:59.568Z,97574.75
2023-04-15T21:08:02.574Z,97578.03
2023-04-15T21:11:05.494Z,97567.28
2023-04-15T21:14:08.963Z,97583.81
2023-04-15T21:17:11.887Z,97586.53
2023-04-15T21:20:14.824Z,97583.81
2023-04-15T21:23:17.997Z,97585.00
2023-04-15T21:26:20.861Z,97585.00
2023-04-15T21:29:24.313Z,97591.47
2023-04-15T21:32:27.177Z,97589.28
2023-04-15T21:35:30.796Z,97602.44
2023-04-15T21:38:34.835Z,97593.63
2023-04-15T21:41:38.101Z,97600.50
2023-04-15T21:44:41.047Z,97599.41
2023-04-15T21:48:06.211Z,97600.22
2023-04-15T21:51:06.819Z,97600.91
2023-04-15T21:54:09.638Z,97603.94
2023-04-15T21:57:12.359Z,97608.19
2023-04-15T22:00:16.017Z,97612.59
2023-04-15T22:03:19.042Z,97611.63
2023-04-15T22:06:22.034Z,97608.63
2023-04-15T22:09:24.790Z,97618.09
2023-04-15T22:12:27.576Z,97610.97
2023-04-15T22:15:32.644Z,97620.06
2023-04-15T22:18:35.593Z,97624.31
2023-04-15T22:21:38.555Z,97630.88
2023-04-15T22:24:41.628Z,97621.97
2023-04-15T22:27:44.290Z,97634.19
2023-04-15T22:30:47.117Z,97636.81
2023-04-15T22:33:49.845Z,97644.78
2023-04-15T22:36:52.848Z,97636.13
2023-04-15T22:39:55.832Z,97639.00
2023-04-15T22:42:58.666Z,97648.94
2023-04-15T22:46:01.779Z,97639.88
2023-04-15T22:49:08.840Z,97647.16
2023-04-15T22:52:17.213Z,97655.25
2023-04-15T22:55:26.628Z,97656.66
2023-04-15T22:58:32.433Z,97661.03
2023-04-15T23:01:35.453Z,97667.38
2023-04-15T23:04:38.398Z,97665.44
2023-04-15T23:07:41.377Z,97673.69
2023-04-15T23:10:44.954Z,97669.28
2023-04-15T23:13:47.711Z,97667.91
2023-04-15T23:16:50.631Z,97673.13
2023-04-15T23:19:53.764Z,97681.38
2023-04-15T23:22:56.359Z,97686.47
2023-04-15T23:25:59.520Z,97682.75
2023-04-15T23:29:02.359Z,97681.25
2023-04-15T23:32:05.292Z,97675.06
2023-04-15T23:35:08.455Z,97674.34
2023-04-15T23:38:11.271Z,97668.84
2023-04-15T23:41:14.271Z,97671.72
2023-04-15T23:44:16.907Z,97682.75
2023-04-15T23:47:19.725Z,97680.97
2023-04-15T23:50:22.448Z,97676.56
2023-04-15T23:53:26.470Z,97683.69
2023-04-15T23:56:29.273Z,97678.63
2023-04-15T23:59:32.053Z,97680.44
